createdAt,value
2019-02-28T00:01:47.984Z,35.27
2019-02-28T00:04:17.610Z,31.50
2019-02-28T00:06:47.218Z,33.57
2019-02-28T00:09:16.848Z,37.13
2019-02-28T00:11:46.052Z,36.20
2019-02-28T00:14:15.936Z,36.17
2019-02-28T00:16:45.139Z,39.90
2019-02-28T00:19:14.379Z,32.00
2019-02-28T00:21:43.505Z,36.70
2019-02-28T00:24:13.058Z,34.53
2019-02-28T00:26:46.226Z,39.13
2019-02-28T00:29:14.629Z,39.90
2019-02-28T00:31:49.502Z,38.57
2019-02-28T00:34:15.020Z,36.60
2019-02-28T00:36:44.246Z,34.97
2019-02-28T00:39:13.861Z,37.60
2019-02-28T00:41:44.472Z,34.80
2019-02-28T00:44:13.838Z,38.03
2019-02-28T00:46:45.003Z,36.20
2019-02-28T00:49:14.758Z,37.00
2019-02-28T00:51:44.374Z,37.00
2019-02-28T00:54:13.649Z,37.20
2019-02-28T00:56:42.781Z,36.73
2019-02-28T00:59:11.909Z,33.70
2019-02-28T01:01:43.035Z,39.80
2019-02-28T01:04:12.451Z,37.57
2019-02-28T01:06:41.888Z,38.30
2019-02-28T01:09:12.217Z,41.30
2019-02-28T01:11:44.951Z,39.23
2019-02-28T01:14:13.329Z,39.80
2019-02-28T01:16:43.102Z,36.93
2019-02-28T01:19:12.798Z,39.50
2019-02-28T01:21:42.026Z,40.30
2019-02-28T01:24:11.564Z,38.73
2019-02-28T01:26:43.334Z,38.87
2019-02-28T01:29:12.057Z,40.00
2019-02-28T01:31:42.585Z,42.47
2019-02-28T01:34:12.489Z,43.30
2019-02-28T01:36:42.009Z,43.50
2019-02-28T01:39:12.781Z,44.13
2019-02-28T01:41:45.283Z,45.37
2019-02-28T01:44:13.845Z,45.70
2019-02-28T01:46:43.469Z,46.00
2019-02-28T01:49:13.170Z,45.50
2019-02-28T01:51:42.799Z,45.53
2019-02-28T01:54:11.994Z,50.53
2019-02-28T01:56:41.093Z,49.93
2019-02-28T01:59:10.186Z,51.57
2019-02-28T02:01:39.758Z,51.77
2019-02-28T02:04:12.486Z,50.07
2019-02-28T02:06:40.336Z,52.53
2019-02-28T02:09:11.054Z,48.60
2019-02-28T02:11:41.518Z,50.33
2019-02-28T02:14:11.859Z,51.80
2019-02-28T02:16:41.688Z,52.57
2019-02-28T02:19:10.873Z,51.33
2019-02-28T02:21:40.396Z,56.23
2019-02-28T02:24:09.650Z,55.27
2019-02-28T02:26:42.340Z,65.93
2019-02-28T02:29:10.249Z,56.97
2019-02-28T02:31:39.882Z,59.67
2019-02-28T02:34:09.488Z,58.83
2019-02-28T02:36:38.671Z,64.33
2019-02-28T02:39:08.268Z,60.07
2019-02-28T02:41:37.871Z,59.27
2019-02-28T02:44:07.055Z,63.13
2019-02-28T02:46:36.595Z,63.43
2019-02-28T02:49:06.189Z,67.33
2019-02-28T02:51:35.405Z,68.57
2019-02-28T02:54:05.506Z,69.40
2019-02-28T02:56:40.715Z,69.53
2019-02-28T02:59:05.997Z,70.13
2019-02-28T03:01:35.554Z,64.87
2019-02-28T03:04:04.754Z,69.37
2019-02-28T03:06:34.275Z,72.53
2019-02-28T03:09:09.020Z,71.90
2019-02-28T03:11:36.130Z,75.77
2019-02-28T03:14:05.694Z,80.47
2019-02-28T03:16:34.916Z,73.83
2019-02-28T03:19:04.682Z,84.10
2019-02-28T03:21:33.870Z,81.93
2019-02-28T03:24:03.466Z,74.83
2019-02-28T03:26:32.728Z,90.27
2019-02-28T03:29:07.555Z,85.57
2019-02-28T03:31:32.607Z,85.30
2019-02-28T03:34:10.216Z,90.40
2019-02-28T03:36:33.259Z,92.93
2019-02-28T03:39:03.105Z,101.00
2019-02-28T03:41:33.980Z,94.90
2019-02-28T03:44:03.159Z,96.80
2019-02-28T03:46:32.691Z,97.90
2019-02-28T03:49:01.919Z,99.57
2019-02-28T03:51:31.021Z,97.77
2019-02-28T03:54:00.570Z,107.30
2019-02-28T03:56:29.835Z,100.07
2019-02-28T03:58:58.942Z,102.13
2019-02-28T04:01:28.046Z,108.83
2019-02-28T04:03:57.566Z,107.73
2019-02-28T04:06:27.170Z,109.87
2019-02-28T04:08:56.838Z,115.83
2019-02-28T04:11:30.795Z,112.10
2019-02-28T04:13:57.314Z,124.37
2019-02-28T04:16:26.914Z,131.03
2019-02-28T04:18:56.128Z,117.77
2019-02-28T04:21:25.630Z,112.30
2019-02-28T04:23:55.547Z,114.40
2019-02-28T04:26:24.737Z,117.57
2019-02-28T04:28:54.913Z,118.50
2019-02-28T04:31:24.236Z,124.77
2019-02-28T04:33:53.869Z,126.70
2019-02-28T04:36:23.479Z,120.57
2019-02-28T04:38:53.079Z,133.53
2019-02-28T04:41:22.696Z,131.57
2019-02-28T04:43:52.322Z,132.23
2019-02-28T04:46:21.924Z,132.67
2019-02-28T04:48:51.125Z,130.77
2019-02-28T04:51:20.669Z,133.17
2019-02-28T04:53:52.525Z,135.47
2019-02-28T04:56:21.724Z,134.47
2019-02-28T04:58:51.260Z,135.60
2019-02-28T05:01:20.843Z,140.07
2019-02-28T05:03:50.078Z,135.63
2019-02-28T05:06:21.231Z,137.03
2019-02-28T05:08:50.893Z,143.63
2019-02-28T05:11:20.108Z,140.90
2019-02-28T05:13:49.656Z,139.40
2019-02-28T05:16:19.262Z,154.77
2019-02-28T05:18:48.911Z,148.80
2019-02-28T05:21:19.577Z,148.80
2019-02-28T05:23:49.379Z,156.13
2019-02-28T05:26:18.461Z,150.10
2019-02-28T05:28:47.993Z,144.47
2019-02-28T05:31:17.662Z,155.13
2019-02-28T05:33:47.326Z,145.70
2019-02-28T05:36:16.498Z,150.30
2019-02-28T05:38:46.066Z,154.07
2019-02-28T05:41:16.047Z,154.73
2019-02-28T05:43:45.685Z,172.30
2019-02-28T05:46:15.285Z,165.53
2019-02-28T05:48:44.979Z,158.77
2019-02-28T05:51:14.725Z,157.30
2019-02-28T05:53:44.891Z,167.27
2019-02-28T05:56:13.993Z,163.90
2019-02-28T05:58:44.082Z,154.47
2019-02-28T06:01:13.254Z,168.47
2019-02-28T06:03:42.380Z,168.53
2019-02-28T06:06:11.928Z,158.57
2019-02-28T06:08:41.599Z,159.90
2019-02-28T06:11:10.777Z,167.07
2019-02-28T06:13:40.303Z,167.13
2019-02-28T06:16:12.351Z,166.70
2019-02-28T06:18:41.294Z,166.93
2019-02-28T06:21:11.016Z,159.53
2019-02-28T06:23:41.002Z,163.90
2019-02-28T06:26:11.314Z,159.07
2019-02-28T06:28:40.962Z,155.23
2019-02-28T06:31:14.403Z,167.47
2019-02-28T06:33:43.039Z,159.33
2019-02-28T06:36:12.125Z,149.73
2019-02-28T06:38:41.662Z,150.83
2019-02-28T06:41:11.352Z,156.50
2019-02-28T06:43:40.960Z,147.57
2019-02-28T06:46:10.667Z,154.87
2019-02-28T06:48:40.324Z,151.10
2019-02-28T06:51:10.020Z,141.30
2019-02-28T06:53:41.235Z,135.23
2019-02-28T06:56:10.447Z,138.00
2019-02-28T06:58:39.983Z,135.77
2019-02-28T07:01:09.194Z,129.90
2019-02-28T07:03:38.798Z,137.53
2019-02-28T07:06:09.482Z,127.40
2019-02-28T07:08:39.181Z,135.00
2019-02-28T07:11:09.205Z,134.60
2019-02-28T07:13:40.151Z,138.00
2019-02-28T07:16:10.026Z,124.63
2019-02-28T07:18:39.677Z,131.87
2019-02-28T07:21:09.348Z,128.47
2019-02-28T07:23:39.300Z,131.13
2019-02-28T07:26:09.000Z,120.30
2019-02-28T07:28:38.323Z,130.77
2019-02-28T07:31:07.990Z,137.53
2019-02-28T07:33:37.295Z,139.87
2019-02-28T07:36:09.633Z,141.43
2019-02-28T07:38:37.642Z,146.00
2019-02-28T07:41:06.890Z,144.77
2019-02-28T07:43:36.426Z,148.47
2019-02-28T07:46:07.803Z,142.70
2019-02-28T07:48:37.405Z,140.50
2019-02-28T07:51:06.639Z,148.30
2019-02-28T07:53:35.887Z,151.60
2019-02-28T07:56:07.100Z,153.70
2019-02-28T07:58:36.350Z,161.30
2019-02-28T08:01:06.042Z,163.80
2019-02-28T08:03:35.256Z,158.07
2019-02-28T08:06:05.737Z,159.10
2019-02-28T08:08:35.254Z,157.93
2019-02-28T08:11:04.482Z,148.37
2019-02-28T08:13:34.650Z,150.10
2019-02-28T08:16:07.365Z,149.53
2019-02-28T08:18:36.968Z,146.90
2019-02-28T08:21:08.793Z,146.43
2019-02-28T08:23:37.677Z,147.37
2019-02-28T08:26:07.479Z,149.57
2019-02-28T08:28:37.202Z,155.67
2019-02-28T08:31:07.274Z,150.13
2019-02-28T08:33:36.445Z,143.83
2019-02-28T08:36:11.541Z,153.00
2019-02-28T08:38:37.292Z,158.70
2019-02-28T08:41:06.927Z,148.93
2019-02-28T08:43:36.598Z,156.83
2019-02-28T08:46:09.772Z,156.60
2019-02-28T08:48:37.752Z,146.37
2019-02-28T08:51:06.971Z,151.73
2019-02-28T08:53:36.559Z,147.37
2019-02-28T08:56:07.150Z,145.43
2019-02-28T08:58:37.656Z,152.90
2019-02-28T09:01:07.936Z,145.47
2019-02-28T09:03:37.546Z,140.93
2019-02-28T09:06:07.524Z,141.13
2019-02-28T09:08:37.153Z,149.70
2019-02-28T09:11:06.954Z,135.17
2019-02-28T09:13:36.627Z,145.13
2019-02-28T09:16:06.309Z,130.43
2019-02-28T09:18:35.911Z,151.87
2019-02-28T09:21:05.622Z,141.00
2019-02-28T09:23:37.523Z,132.80
2019-02-28T09:26:06.101Z,138.57
2019-02-28T09:28:35.197Z,138.00
2019-02-28T09:31:05.060Z,139.97
2019-02-28T09:33:35.675Z,127.83
2019-02-28T09:36:04.886Z,128.53
2019-02-28T09:38:34.346Z,127.80
2019-02-28T09:41:04.516Z,132.07
2019-02-28T09:43:34.623Z,130.33
2019-02-28T09:46:04.230Z,129.87
2019-02-28T09:48:37.129Z,114.97
2019-02-28T09:51:05.658Z,117.30
2019-02-28T09:53:34.825Z,113.87
2019-02-28T09:56:09.055Z,115.03
2019-02-28T09:58:35.411Z,122.73
2019-02-28T10:01:05.522Z,118.23
2019-02-28T10:03:35.143Z,117.10
2019-02-28T10:06:04.343Z,109.97
2019-02-28T10:08:36.895Z,115.40
2019-02-28T10:11:05.271Z,113.17
2019-02-28T10:13:34.507Z,108.13
2019-02-28T10:16:03.683Z,115.20
2019-02-28T10:18:35.546Z,116.33
2019-02-28T10:21:04.802Z,127.80
2019-02-28T10:23:34.129Z,129.23
2019-02-28T10:26:03.336Z,124.83
2019-02-28T10:28:32.953Z,125.90
2019-02-28T10:31:04.323Z,123.23
2019-02-28T10:33:33.915Z,123.57
2019-02-28T10:36:03.682Z,124.37
2019-02-28T10:38:33.939Z,118.60
2019-02-28T10:41:03.710Z,128.63
2019-02-28T10:43:33.332Z,118.90
2019-02-28T10:46:03.364Z,125.13
2019-02-28T10:48:35.217Z,119.93
2019-02-28T10:51:12.886Z,122.70
2019-02-28T10:53:36.370Z,121.93
2019-02-28T10:56:06.867Z,110.03
2019-02-28T10:58:36.070Z,122.93
2019-02-28T11:01:08.939Z,118.20
2019-02-28T11:03:39.520Z,114.90
2019-02-28T11:06:09.433Z,114.50
2019-02-28T11:08:39.362Z,121.57
2019-02-28T11:11:10.530Z,111.87
2019-02-28T11:13:39.961Z,116.43
2019-02-28T11:16:09.562Z,121.30
2019-02-28T11:18:41.963Z,109.70
2019-02-28T11:21:10.461Z,110.37
2019-02-28T11:23:39.769Z,106.67
2019-02-28T11:26:10.370Z,104.77
2019-02-28T11:28:40.006Z,104.13
2019-02-28T11:31:11.085Z,110.67
2019-02-28T11:33:40.451Z,111.03
2019-02-28T11:36:10.276Z,109.30
2019-02-28T11:38:39.534Z,108.43
2019-02-28T11:41:12.479Z,106.97
2019-02-28T11:43:42.245Z,100.10
2019-02-28T11:46:12.021Z,98.43
2019-02-28T11:48:41.754Z,96.47
2019-02-28T11:51:10.955Z,99.77
2019-02-28T11:53:40.597Z,106.10
2019-02-28T11:56:09.907Z,100.70
2019-02-28T11:58:39.441Z,93.63
2019-02-28T12:01:10.492Z,93.83
2019-02-28T12:03:39.525Z,102.37
2019-02-28T12:06:09.354Z,95.00
2019-02-28T12:08:41.592Z,92.37
2019-02-28T12:11:09.953Z,86.47
2019-02-28T12:13:39.529Z,94.30
2019-02-28T12:16:08.780Z,85.17
2019-02-28T12:18:40.004Z,89.10
2019-02-28T12:21:09.293Z,81.53
2019-02-28T12:23:38.900Z,84.80
2019-02-28T12:26:08.082Z,83.50
2019-02-28T12:28:38.428Z,75.00
2019-02-28T12:31:08.382Z,77.30
2019-02-28T12:33:37.925Z,71.17
2019-02-28T12:36:07.194Z,79.40
2019-02-28T12:38:36.746Z,74.87
2019-02-28T12:41:05.917Z,68.70
2019-02-28T12:43:35.687Z,62.93
2019-02-28T12:46:06.418Z,66.03
2019-02-28T12:48:35.835Z,74.80
2019-02-28T12:51:05.457Z,65.23
2019-02-28T12:53:35.778Z,69.10
2019-02-28T12:56:05.541Z,71.17
2019-02-28T12:58:38.719Z,74.17
2019-02-28T13:01:05.703Z,68.20
2019-02-28T13:03:34.833Z,61.77
2019-02-28T13:06:04.567Z,66.90
2019-02-28T13:08:34.291Z,65.03
2019-02-28T13:11:04.713Z,63.63
2019-02-28T13:13:34.402Z,70.50
2019-02-28T13:16:03.711Z,73.40
2019-02-28T13:18:33.243Z,66.07
2019-02-28T13:21:02.454Z,67.97
2019-02-28T13:23:33.341Z,63.57
2019-02-28T13:26:02.954Z,67.40
2019-02-28T13:28:32.527Z,64.13
2019-02-28T13:31:02.166Z,62.97
2019-02-28T13:33:31.882Z,72.93
2019-02-28T13:36:01.532Z,61.53
2019-02-28T13:38:30.766Z,72.67
2019-02-28T13:41:00.266Z,67.87
2019-02-28T13:43:31.975Z,65.40
2019-02-28T13:46:00.890Z,59.47
2019-02-28T13:48:33.743Z,68.77
2019-02-28T13:51:02.552Z,61.27
2019-02-28T13:53:32.930Z,70.10
2019-02-28T13:56:04.836Z,62.10
2019-02-28T13:58:33.457Z,59.57
2019-02-28T14:01:03.824Z,65.77
2019-02-28T14:03:33.479Z,62.93
2019-02-28T14:06:02.727Z,61.00
2019-02-28T14:08:32.314Z,61.00
2019-02-28T14:11:01.648Z,60.27
2019-02-28T14:13:34.736Z,59.43
2019-02-28T14:16:03.779Z,54.43
2019-02-28T14:18:33.060Z,53.93
2019-02-28T14:21:03.197Z,66.23
2019-02-28T14:23:33.839Z,62.37
2019-02-28T14:26:03.588Z,56.13
2019-02-28T14:28:35.623Z,55.07
2019-02-28T14:31:05.371Z,53.63
2019-02-28T14:33:34.555Z,56.13
2019-02-28T14:36:04.086Z,57.83
2019-02-28T14:38:33.758Z,53.17
2019-02-28T14:41:03.525Z,56.47
2019-02-28T14:43:32.729Z,51.10
2019-02-28T14:46:02.327Z,58.77
2019-02-28T14:48:31.955Z,55.40
2019-02-28T14:51:01.158Z,56.67
2019-02-28T14:53:30.285Z,52.40
2019-02-28T14:55:59.954Z,51.47
2019-02-28T14:58:29.566Z,51.07
2019-02-28T15:00:58.743Z,54.57
2019-02-28T15:03:27.954Z,60.37
2019-02-28T15:05:57.180Z,55.97
2019-02-28T15:08:27.178Z,49.93
2019-02-28T15:10:57.035Z,56.60
2019-02-28T15:13:26.386Z,53.00
2019-02-28T15:15:55.496Z,56.50
2019-02-28T15:18:25.135Z,56.43
2019-02-28T15:20:54.776Z,51.87
2019-02-28T15:23:23.969Z,50.77
2019-02-28T15:25:54.215Z,56.57
2019-02-28T15:28:24.240Z,54.80
2019-02-28T15:30:53.337Z,51.27
2019-02-28T15:33:22.470Z,57.20
2019-02-28T15:35:51.989Z,50.60
2019-02-28T15:38:21.590Z,55.00
2019-02-28T15:40:51.213Z,62.23
2019-02-28T15:43:20.933Z,47.60
2019-02-28T15:45:50.543Z,50.93
2019-02-28T15:48:20.196Z,57.07
2019-02-28T15:50:51.692Z,60.07
2019-02-28T15:53:21.195Z,51.07
2019-02-28T15:55:50.954Z,47.93
2019-02-28T15:58:20.186Z,52.03
2019-02-28T16:01:14.823Z,55.60
2019-02-28T16:04:26.311Z,53.03
2019-02-28T16:06:57.931Z,56.60
2019-02-28T16:09:26.821Z,146.50
2019-02-28T16:11:55.913Z,86.73
2019-02-28T16:14:25.710Z,61.30
2019-02-28T16:16:56.799Z,56.00
2019-02-28T16:19:27.941Z,77.83
2019-02-28T16:21:58.982Z,53.13
2019-02-28T16:24:28.178Z,49.60
2019-02-28T16:26:58.025Z,55.07
2019-02-28T16:29:28.238Z,50.17
2019-02-28T16:31:57.775Z,58.73
2019-02-28T16:34:28.025Z,51.93
2019-02-28T16:37:00.901Z,54.93
2019-02-28T16:39:28.454Z,53.47
2019-02-28T16:41:57.574Z,53.70
2019-02-28T16:44:27.664Z,49.97
2019-02-28T16:46:58.283Z,58.13
2019-02-28T16:49:27.549Z,48.80
2019-02-28T16:51:56.737Z,51.20
2019-02-28T16:54:27.824Z,49.97
2019-02-28T16:56:56.734Z,53.40
2019-02-28T16:59:28.430Z,55.20
2019-02-28T17:01:56.631Z,55.63
2019-02-28T17:04:25.755Z,50.43
2019-02-28T17:06:55.598Z,57.43
2019-02-28T17:09:43.841Z,56.33
2019-02-28T17:12:31.032Z,48.13
2019-02-28T17:15:00.297Z,50.27
2019-02-28T17:17:33.710Z,48.80
2019-02-28T17:20:06.166Z,48.90
2019-02-28T17:22:34.172Z,52.60
2019-02-28T17:25:04.235Z,54.57
2019-02-28T17:27:43.219Z,48.07
2019-02-28T17:30:22.950Z,54.93
2019-02-28T17:32:52.170Z,53.43
2019-02-28T17:35:21.571Z,51.17
2019-02-28T17:37:50.784Z,53.77
2019-02-28T17:40:23.150Z,58.13
2019-02-28T17:42:51.237Z,46.33
2019-02-28T17:45:25.087Z,64.33
2019-02-28T17:48:29.016Z,62.97
2019-02-28T17:51:00.005Z,60.10
2019-02-28T17:54:07.038Z,61.23
2019-02-28T17:56:54.135Z,54.70
2019-02-28T17:59:42.514Z,48.57
2019-02-28T18:02:30.742Z,53.67
2019-02-28T18:05:33.733Z,53.17
2019-02-28T18:08:15.395Z,49.23
2019-02-28T18:10:59.241Z,51.10
2019-02-28T18:13:40.559Z,58.50
2019-02-28T18:16:31.874Z,46.80
2019-02-28T18:19:18.348Z,50.53
2019-02-28T18:22:01.144Z,52.67
2019-02-28T18:24:55.827Z,48.83
2019-02-28T18:27:47.957Z,51.80
2019-02-28T18:31:06.315Z,47.03
2019-02-28T18:33:36.569Z,52.87
2019-02-28T18:36:08.307Z,55.13
2019-02-28T18:38:39.289Z,63.33
2019-02-28T18:41:09.245Z,66.43
2019-02-28T18:43:40.454Z,58.67
2019-02-28T18:46:09.984Z,47.30
2019-02-28T18:48:39.607Z,56.87
2019-02-28T18:51:09.423Z,51.87
2019-02-28T18:53:39.449Z,51.67
2019-02-28T18:56:10.066Z,49.33
2019-02-28T18:58:39.745Z,52.60
2019-02-28T19:01:36.977Z,45.73
2019-02-28T19:04:07.999Z,50.90
2019-02-28T19:06:37.509Z,44.10
2019-02-28T19:09:18.250Z,48.00
2019-02-28T19:11:48.030Z,49.37
2019-02-28T19:14:17.662Z,48.17
2019-02-28T19:16:46.895Z,52.97
2019-02-28T19:19:16.016Z,44.50
2019-02-28T19:21:45.537Z,42.03
2019-02-28T19:24:14.762Z,52.67
2019-02-28T19:26:43.947Z,45.23
2019-02-28T19:29:13.542Z,46.93
2019-02-28T19:31:42.777Z,47.97
2019-02-28T19:34:12.474Z,43.00
2019-02-28T19:36:42.055Z,45.97
2019-02-28T19:39:11.879Z,45.30
2019-02-28T19:41:41.219Z,46.87
2019-02-28T19:44:10.534Z,41.37
2019-02-28T19:46:39.678Z,49.07
2019-02-28T19:49:09.007Z,46.73
2019-02-28T19:51:40.269Z,46.10
2019-02-28T19:54:10.031Z,41.93
2019-02-28T19:56:39.331Z,49.57
2019-02-28T19:59:09.158Z,52.17
2019-02-28T20:01:38.290Z,53.00
2019-02-28T20:04:07.996Z,50.47
2019-02-28T20:06:37.204Z,45.90
2019-02-28T20:09:07.443Z,47.03
2019-02-28T20:11:38.146Z,56.77
2019-02-28T20:14:07.883Z,62.07
2019-02-28T20:16:37.557Z,53.33
2019-02-28T20:19:06.863Z,47.80
2019-02-28T20:21:36.859Z,49.20
2019-02-28T20:24:06.463Z,51.50
2019-02-28T20:26:36.244Z,47.00
2019-02-28T20:29:06.126Z,52.67
2019-02-28T20:31:35.455Z,45.47
2019-02-28T20:34:04.566Z,53.30
2019-02-28T20:36:34.178Z,51.07
2019-02-28T20:39:05.483Z,49.70
2019-02-28T20:41:36.394Z,58.23
2019-02-28T20:44:06.080Z,48.50
2019-02-28T20:46:35.783Z,57.23
2019-02-28T20:49:05.555Z,52.43
2019-02-28T20:51:34.782Z,49.83
2019-02-28T20:54:04.273Z,52.77
2019-02-28T20:56:33.812Z,50.67
2019-02-28T20:59:03.510Z,47.37
2019-02-28T21:01:33.191Z,53.13
2019-02-28T21:04:02.490Z,46.27
2019-02-28T21:06:31.776Z,52.27
2019-02-28T21:09:00.958Z,69.40
2019-02-28T21:11:31.962Z,58.97
2019-02-28T21:14:01.506Z,54.10
2019-02-28T21:16:30.758Z,54.00
2019-02-28T21:19:00.323Z,57.63
2019-02-28T21:21:29.634Z,49.60
2019-02-28T21:23:59.241Z,53.33
2019-02-28T21:26:28.502Z,55.53
2019-02-28T21:28:57.619Z,54.67
2019-02-28T21:31:26.765Z,61.87
2019-02-28T21:33:56.298Z,52.90
2019-02-28T21:36:26.146Z,58.67
2019-02-28T21:38:55.416Z,67.20
2019-02-28T21:41:24.517Z,58.50
2019-02-28T21:43:54.637Z,58.77
2019-02-28T21:46:23.877Z,60.00
2019-02-28T21:48:53.541Z,62.93
2019-02-28T21:51:22.877Z,59.07
2019-02-28T21:53:51.982Z,54.93
2019-02-28T21:56:21.522Z,62.90
2019-02-28T21:58:51.122Z,59.80
2019-02-28T22:01:20.334Z,54.67
2019-02-28T22:03:49.873Z,57.47
2019-02-28T22:06:19.061Z,58.13
2019-02-28T22:08:48.237Z,60.13
2019-02-28T22:11:18.396Z,52.17
2019-02-28T22:13:47.967Z,62.20
2019-02-28T22:16:17.707Z,55.33
2019-02-28T22:18:47.342Z,58.87
2019-02-28T22:21:16.582Z,67.27
2019-02-28T22:23:45.688Z,65.27
2019-02-28T22:26:15.355Z,67.07
2019-02-28T22:28:45.013Z,61.30
2019-02-28T22:31:30.102Z,64.67
2019-02-28T22:34:11.181Z,61.03
2019-02-28T22:36:42.777Z,58.67
2019-02-28T22:39:13.009Z,71.57
2019-02-28T22:41:42.129Z,67.23
2019-02-28T22:44:11.286Z,72.60
2019-02-28T22:46:40.434Z,71.87
2019-02-28T22:49:10.725Z,63.70
2019-02-28T22:51:40.254Z,75.20
2019-02-28T22:54:09.483Z,63.60
2019-02-28T22:56:39.130Z,61.67
2019-02-28T22:59:08.325Z,67.90
2019-02-28T23:01:38.437Z,69.77
2019-02-28T23:04:08.152Z,71.07
2019-02-28T23:06:37.903Z,64.90
2019-02-28T23:09:07.588Z,69.13
2019-02-28T23:11:37.139Z,68.57
2019-02-28T23:14:06.688Z,63.47
2019-02-28T23:16:35.918Z,70.17
2019-02-28T23:19:06.490Z,73.10
2019-02-28T23:21:36.138Z,69.50
2019-02-28T23:24:05.342Z,65.90
2019-02-28T23:26:53.722Z,65.23
2019-02-28T23:29:23.878Z,67.67
2019-02-28T23:32:26.079Z,68.77
2019-02-28T23:34:56.464Z,56.07
2019-02-28T23:37:25.668Z,58.33
2019-02-28T23:39:54.979Z,65.77
2019-02-28T23:42:24.692Z,67.83
2019-02-28T23:44:54.043Z,56.67
2019-02-28T23:47:23.678Z,61.77
2019-02-28T23:49:54.175Z,58.73
2019-02-28T23:52:23.306Z,64.10
2019-02-28T23:54:52.900Z,57.83
2019-02-28T23:57:22.152Z,58.17
2019-02-28T23:59:51.680Z,54.53
